Time;durP1;ratioP1;P1;durP2;ratioP2;P2;SDS_P1;SDS_P2;PMS_P1;PMS_P2;Temp;Humidity;BMP_temperature;BMP_pressure;BME280_temperature;BME280_humidity;BME280_pressure;Samples;Min_cycle;Max_cycle;Signal;HPM_P1;HPM_P2
2023/09/04 00:05:42;;;;;;;3.50;1.80;;;;;;;14.34;73.67;100414.07;432626;1265;140402;-67
2023/09/04 00:15:47;;;;;;;3.80;2.00;;;;;;;14.28;73.88;100423.05;432444;1265;139571;-67
2023/09/04 00:25:54;;;;;;;5.30;2.40;;;;;;;14.22;74.19;100422.55;432431;1265;141087;-67
2023/09/04 00:36:00;;;;;;;2.10;1.80;;;;;;;14.16;74.43;100441.79;432578;1265;139327;-67
2023/09/04 00:46:07;;;;;;;4.20;2.40;;;;;;;14.08;74.59;100453.05;432880;1267;139884;-68
2023/09/04 00:56:15;;;;;;;4.70;2.10;;;;;;;13.98;74.85;100441.88;432734;1267;140345;-68
2023/09/04 01:06:20;;;;;;;2.30;1.80;;;;;;;13.90;75.24;100438.56;432382;1265;139503;-67
2023/09/04 01:16:26;;;;;;;3.30;2.20;;;;;;;13.82;75.54;100436.59;432633;1268;139659;-68
2023/09/04 01:26:37;;;;;;;6.80;2.70;;;;;;;13.71;75.73;100421.98;433029;1267;140086;-68
2023/09/04 01:36:44;;;;;;;7.30;2.70;;;;;;;13.56;76.25;100425.73;433229;1269;139484;-66
2023/09/04 01:46:50;;;;;;;4.70;2.30;;;;;;;13.49;76.75;100431.80;432912;1270;141237;-67
2023/09/04 01:56:56;;;;;;;4.70;2.70;;;;;;;13.43;77.43;100444.08;433015;1265;140431;-66
2023/09/04 02:07:02;;;;;;;2.90;2.40;;;;;;;13.46;77.95;100461.69;432840;1268;139502;-67
2023/09/04 02:17:08;;;;;;;2.70;2.10;;;;;;;13.57;78.24;100476.69;432093;1265;139534;-66
2023/09/04 02:27:14;;;;;;;4.40;2.30;;;;;;;13.67;78.21;100476.92;432649;1267;139770;-67
2023/09/04 02:37:19;;;;;;;5.10;2.20;;;;;;;13.77;78.12;100474.93;432443;1267;139315;-67
2023/09/04 02:47:25;;;;;;;5.10;2.50;;;;;;;13.82;78.03;100471.95;432483;1268;140110;-66
2023/09/04 02:57:33;;;;;;;3.00;1.90;;;;;;;13.83;77.99;100477.18;432530;1266;139424;-67
2023/09/04 03:07:39;;;;;;;4.90;2.40;;;;;;;13.83;78.08;100473.09;432351;1269;139430;-66
2023/09/04 03:17:44;;;;;;;4.60;2.60;;;;;;;13.81;78.36;100466.77;432117;1270;140898;-66
2023/09/04 03:27:50;;;;;;;4.40;2.00;;;;;;;13.76;78.41;100480.59;432116;1267;140962;-65
2023/09/04 03:37:56;;;;;;;6.90;2.40;;;;;;;13.71;78.59;100483.02;432093;1268;139574;-66
2023/09/04 03:48:02;;;;;;;7.80;2.70;;;;;;;13.65;79.11;100481.16;432264;1269;140204;-66
2023/09/04 03:58:08;;;;;;;6.80;3.20;;;;;;;13.66;79.61;100492.66;432290;1265;139316;-66
2023/09/04 04:08:14;;;;;;;5.00;2.30;;;;;;;13.71;79.61;100511.55;432086;1266;140405;-66
2023/09/04 04:18:20;;;;;;;6.50;3.20;;;;;;;13.64;79.56;100520.25;432130;1268;139495;-67
2023/09/04 04:28:27;;;;;;;7.20;4.10;;;;;;;13.66;79.95;100525.71;432318;1269;141373;-66
2023/09/04 04:38:32;;;;;;;4.40;2.90;;;;;;;13.68;79.81;100518.73;432218;1268;139558;-67
2023/09/04 04:48:38;;;;;;;4.00;3.20;;;;;;;13.70;80.34;100529.32;432434;1265;141487;-67
2023/09/04 04:58:44;;;;;;;7.70;3.80;;;;;;;14.07;80.77;100534.44;432941;1268;139854;-67
2023/09/04 05:08:50;;;;;;;12.60;3.20;;;;;;;14.50;79.99;100538.75;433054;1265;140040;-68
2023/09/04 05:18:57;;;;;;;6.20;2.80;;;;;;;14.75;79.55;100538.52;433301;1265;140684;-66
2023/09/04 05:29:03;;;;;;;12.20;4.50;;;;;;;15.13;79.24;100539.22;432579;1265;139925;-67
2023/09/04 05:39:09;;;;;;;4.40;2.80;;;;;;;15.39;78.58;100555.11;432496;1267;139814;-67
2023/09/04 05:49:15;;;;;;;4.90;3.30;;;;;;;15.58;78.08;100562.75;432901;1265;139353;-67
2023/09/04 05:59:21;;;;;;;7.30;3.30;;;;;;;15.94;77.30;100568.79;432225;1268;139466;-67
2023/09/04 06:09:27;;;;;;;6.20;3.50;;;;;;;16.59;77.03;100572.61;432273;1269;140556;-67
2023/09/04 06:19:33;;;;;;;4.00;2.80;;;;;;;19.95;78.24;100582.36;432520;1268;139580;-66
2023/09/04 06:29:38;;;;;;;5.80;2.70;;;;;;;24.59;69.62;100595.68;432188;1267;140071;-68
2023/09/04 06:39:44;;;;;;;7.90;2.40;;;;;;;27.95;60.91;100600.91;432783;1268;139289;-68
2023/09/04 06:49:50;;;;;;;6.40;2.40;;;;;;;31.68;54.57;100596.77;432660;1267;139150;-67
2023/09/04 06:59:57;;;;;;;3.80;2.70;;;;;;;36.00;46.24;100597.80;432608;1269;139151;-68
2023/09/04 07:10:04;;;;;;;4.10;1.90;;;;;;;37.55;39.77;100612.50;432702;1268;138831;-69
2023/09/04 07:20:11;;;;;;;5.10;1.40;;;;;;;40.51;35.84;100623.03;432238;1267;139304;-68
2023/09/04 07:30:17;;;;;;;2.40;1.50;;;;;;;39.62;31.75;100627.89;432541;1269;138739;-68
2023/09/04 07:40:23;;;;;;;2.60;1.30;;;;;;;37.94;30.53;100621.60;432319;1265;139481;-68
2023/09/04 07:50:29;;;;;;;4.30;1.60;;;;;;;33.79;30.99;100621.98;432162;1269;140484;-67
2023/09/04 08:00:34;;;;;;;;;;;;;;;30.94;33.53;100633.98;432251;1269;139420;-67
2023/09/04 08:10:42;;;;;;;4.20;1.60;;;;;;;29.69;35.01;100638.68;432141;1270;125583;-67
2023/09/04 08:20:49;;;;;;;3.00;1.10;;;;;;;28.88;35.77;100635.67;432204;1269;140422;-66
2023/09/04 08:30:55;;;;;;;5.80;2.80;;;;;;;28.29;36.55;100626.64;432390;1270;139876;-68
2023/09/04 08:41:05;;;;;;;11.50;2.50;;;;;;;28.06;37.11;100624.56;432070;1269;139163;-68
2023/09/04 08:51:11;;;;;;;4.50;1.60;;;;;;;27.95;37.65;100630.71;432133;1269;138930;-66
2023/09/04 09:01:19;;;;;;;5.30;1.60;;;;;;;27.68;37.55;100636.48;432216;1269;138699;-67
2023/09/04 09:11:25;;;;;;;3.10;1.10;;;;;;;26.96;38.31;100634.71;432302;1269;138783;-66
2023/09/04 09:21:33;;;;;;;3.90;1.90;;;;;;;26.78;38.43;100628.63;432427;1269;139161;-68
2023/09/04 09:31:41;;;;;;;5.70;1.90;;;;;;;26.68;38.65;100633.02;432616;1269;138640;-67
2023/09/04 09:41:48;;;;;;;4.20;1.30;;;;;;;26.68;38.63;100627.81;432345;1270;139097;-67
2023/09/04 09:51:55;;;;;;;4.00;1.90;;;;;;;26.11;38.45;100625.30;432067;1270;141463;-67
2023/09/04 10:02:04;;;;;;;5.30;1.70;;;;;;;25.22;39.33;100623.52;432199;1270;139016;-67
2023/09/04 10:12:14;;;;;;;3.40;1.50;;;;;;;24.32;40.51;100622.21;432308;1270;139140;-67
2023/09/04 10:22:25;;;;;;;6.70;2.20;;;;;;;23.69;41.60;100617.52;432164;1269;138869;-67
2023/09/04 10:32:32;;;;;;;4.70;1.60;;;;;;;23.53;42.61;100616.59;432106;1270;138848;-67
2023/09/04 10:42:41;;;;;;;5.50;1.70;;;;;;;23.47;42.89;100620.59;432826;1270;138665;-67
2023/09/04 10:52:47;;;;;;;5.70;1.60;;;;;;;23.07;42.62;100621.02;432242;1267;138846;-67
2023/09/04 11:02:52;;;;;;;5.60;1.60;;;;;;;22.59;43.20;100620.55;432372;1269;140112;-67
2023/09/04 11:12:59;;;;;;;6.50;1.80;;;;;;;22.41;44.12;100616.09;432095;1270;138733;-66
2023/09/04 11:23:07;;;;;;;4.00;1.50;;;;;;;22.56;44.52;100627.00;432143;1270;139515;-67
2023/09/04 11:33:14;;;;;;;3.50;1.50;;;;;;;22.82;44.68;100626.73;432161;1265;138758;-67
2023/09/04 11:43:20;;;;;;;4.70;1.50;;;;;;;22.93;44.52;100624.61;432762;1267;138899;-66
2023/09/04 11:53:26;;;;;;;4.80;1.90;;;;;;;22.80;44.43;100613.38;432225;1267;138532;-66
2023/09/04 12:03:33;;;;;;;3.10;1.50;;;;;;;22.61;45.12;100614.30;432153;1270;139186;-67
2023/09/04 12:13:38;;;;;;;4.70;1.90;;;;;;;22.56;45.44;100602.73;432146;1266;138628;-67
2023/09/04 12:23:46;;;;;;;3.20;1.10;;;;;;;22.82;45.07;100591.55;432110;1267;138551;-68
2023/09/04 12:33:53;;;;;;;5.00;2.20;;;;;;;22.95;44.83;100599.39;432140;1270;139353;-67
2023/09/04 12:44:00;;;;;;;4.50;2.30;;;;;;;22.92;44.41;100587.41;432374;1270;138798;-66
2023/09/04 12:54:06;;;;;;;3.20;1.70;;;;;;;22.95;44.28;100578.14;432605;1268;140129;-66
2023/09/04 13:04:12;;;;;;;7.70;1.80;;;;;;;23.01;44.39;100575.40;432525;1264;138794;-66
2023/09/04 13:14:21;;;;;;;4.60;2.10;;;;;;;23.05;43.91;100574.32;432268;1264;138722;-67
2023/09/04 13:24:27;;;;;;;3.10;1.40;;;;;;;23.07;43.74;100567.67;432541;1265;139238;-68
2023/09/04 13:34:33;;;;;;;3.10;2.00;;;;;;;23.06;43.69;100562.58;433008;1267;138852;-68
2023/09/04 13:44:39;;;;;;;6.20;2.40;;;;;;;22.97;43.87;100561.27;433059;1265;139710;-67
2023/09/04 13:54:44;;;;;;;4.50;2.00;;;;;;;22.67;43.89;100561.98;432533;1265;138670;-67
2023/09/04 14:04:50;;;;;;;2.70;1.70;;;;;;;22.52;44.10;100558.64;432227;1264;138983;-67
2023/09/04 14:14:56;;;;;;;4.00;3.00;;;;;;;22.41;44.20;100556.49;432530;1267;139029;-66
2023/09/04 14:25:02;;;;;;;3.40;1.40;;;;;;;22.39;44.45;100548.34;432473;1265;140270;-66
2023/09/04 14:35:09;;;;;;;2.00;1.30;;;;;;;22.47;44.75;100547.06;432287;1267;140028;-66
2023/09/04 14:45:15;;;;;;;7.10;1.80;;;;;;;22.50;44.45;100553.33;432321;1265;139177;-66
2023/09/04 14:55:23;;;;;;;3.90;1.50;;;;;;;22.43;44.44;100554.02;432603;1267;138674;-67
2023/09/04 15:05:28;;;;;;;1.70;1.50;;;;;;;22.40;44.72;100545.00;432460;1267;138588;-66
2023/09/04 15:15:34;;;;;;;2.20;1.30;;;;;;;22.30;44.61;100536.32;432619;1267;138831;-68
2023/09/04 15:25:40;;;;;;;2.80;1.40;;;;;;;22.05;44.81;100533.26;432511;1265;139572;-68
2023/09/04 15:35:47;;;;;;;6.50;2.50;;;;;;;21.91;45.22;100532.52;432246;1267;139794;-67
2023/09/04 15:45:54;;;;;;;4.30;1.60;;;;;;;21.67;45.67;100531.22;432403;1265;138759;-68
2023/09/04 15:56:01;;;;;;;4.40;1.50;;;;;;;21.40;46.30;100531.75;432450;1265;140533;-67
2023/09/04 16:06:07;;;;;;;5.60;2.80;;;;;;;21.20;46.38;100541.86;432662;1265;138780;-66
2023/09/04 16:16:12;;;;;;;4.50;1.80;;;;;;;21.03;46.64;100540.06;432944;1267;139148;-66
2023/09/04 16:26:18;;;;;;;6.00;1.90;;;;;;;20.85;47.16;100532.27;432333;1265;138850;-67
2023/09/04 16:36:24;;;;;;;3.70;1.70;;;;;;;20.58;47.83;100531.69;432430;1265;139033;-69
2023/09/04 16:46:30;;;;;;;2.80;1.20;;;;;;;20.26;48.58;100539.33;433014;1268;139926;-67
2023/09/04 16:56:36;;;;;;;3.20;2.00;;;;;;;19.92;49.59;100544.45;432287;1265;138630;-67
2023/09/04 17:06:43;;;;;;;3.50;2.10;;;;;;;19.57;50.69;100551.88;432390;1267;139819;-66
2023/09/04 17:16:50;;;;;;;13.30;2.30;;;;;;;19.22;51.63;100560.52;432895;1265;140238;-66
2023/09/04 17:26:56;;;;;;;10.70;2.60;;;;;;;18.85;53.15;100565.21;432857;1267;138920;-66
2023/09/04 17:37:02;;;;;;;8.10;4.20;;;;;;;18.43;54.92;100568.64;432344;1265;139205;-66
2023/09/04 17:47:07;;;;;;;5.80;1.80;;;;;;;18.02;56.64;100572.46;431648;1270;138890;-66
2023/09/04 17:57:13;;;;;;;13.40;2.50;;;;;;;17.60;58.47;100576.98;431484;1267;139565;-67
2023/09/04 18:07:19;;;;;;;5.40;1.80;;;;;;;17.19;60.27;100583.24;431903;1265;139159;-67
2023/09/04 18:17:24;;;;;;;11.60;3.20;;;;;;;16.83;61.76;100586.77;431794;1267;140149;-67
2023/09/04 18:27:30;;;;;;;4.80;3.20;;;;;;;16.55;63.06;100582.83;431908;1267;141062;-64
2023/09/04 18:37:36;;;;;;;6.60;3.50;;;;;;;16.28;64.31;100588.79;431983;1268;139488;-63
2023/09/04 18:47:42;;;;;;;6.50;2.80;;;;;;;16.03;65.65;100593.96;431860;1268;139634;-62
2023/09/04 18:57:48;;;;;;;7.00;2.50;;;;;;;15.75;66.80;100596.92;431877;1267;139681;-63
2023/09/04 19:07:53;;;;;;;12.50;4.50;;;;;;;15.47;67.76;100601.67;431970;1268;140658;-64
2023/09/04 19:17:59;;;;;;;7.70;3.90;;;;;;;15.24;68.73;100605.34;432159;1270;139694;-62
2023/09/04 19:28:07;;;;;;;6.60;3.30;;;;;;;15.02;69.54;100614.03;432158;1267;139471;-63
2023/09/04 19:38:13;;;;;;;6.70;3.60;;;;;;;14.79;70.37;100624.29;432598;1267;139770;-63
2023/09/04 19:48:18;;;;;;;12.00;7.20;;;;;;;14.60;71.16;100628.31;432101;1269;140403;-63
2023/09/04 19:58:25;;;;;;;9.00;3.40;;;;;;;14.40;71.81;100629.02;432061;1268;140539;-62
2023/09/04 20:08:31;;;;;;;6.70;3.40;;;;;;;14.21;72.50;100634.80;432480;1266;139663;-63
2023/09/04 20:18:37;;;;;;;5.90;3.70;;;;;;;14.05;73.32;100633.19;432123;1268;139868;-63
2023/09/04 20:28:43;;;;;;;5.90;3.60;;;;;;;13.94;73.83;100637.35;432223;1268;139571;-63
2023/09/04 20:38:49;;;;;;;7.80;4.30;;;;;;;13.75;74.44;100638.67;432030;1267;140652;-63
2023/09/04 20:48:55;;;;;;;12.70;6.20;;;;;;;13.57;75.21;100639.73;432249;1267;139367;-62
2023/09/04 20:59:01;;;;;;;6.50;4.10;;;;;;;13.42;75.86;100634.98;432311;1267;139880;-62
2023/09/04 23:24:03;;;;;;;10.10;6.40;;;;;;;11.64;83.36;100636.45;432174;1268;140619;-70
2023/09/04 23:34:09;;;;;;;9.00;6.90;;;;;;;11.58;83.84;100642.38;432196;1268;139690;-70
2023/09/04 23:54:40;;;;;;;9.00;6.10;;;;;;;11.36;84.34;100634.16;433129;1268;139337;-69
